sensor_id;sensor_type;location;lat;lon;timestamp;temperature;humidity
21722;DHT22;11023;48.274;7.794;2024-01-06T00:01:31;6.90;99.90
21722;DHT22;11023;48.274;7.794;2024-01-06T00:03:56;6.90;99.90
21722;DHT22;11023;48.274;7.794;2024-01-06T00:06:22;6.90;99.90
21722;DHT22;11023;48.274;7.794;2024-01-06T00:08:48;6.90;99.90
21722;DHT22;11023;48.274;7.794;2024-01-06T00:11:20;6.90;99.90
21722;DHT22;11023;48.274;7.794;2024-01-06T00:13:46;6.90;99.90
21722;DHT22;11023;48.274;7.794;2024-01-06T00:16:16;6.90;99.90
21722;DHT22;11023;48.274;7.794;2024-01-06T00:18:42;6.80;99.90
21722;DHT22;11023;48.274;7.794;2024-01-06T00:21:08;6.80;99.90
21722;DHT22;11023;48.274;7.794;2024-01-06T00:23:34;6.70;99.90
21722;DHT22;11023;48.274;7.794;2024-01-06T00:26:00;6.70;99.90
21722;DHT22;11023;48.274;7.794;2024-01-06T00:28:25;6.70;99.90
21722;DHT22;11023;48.274;7.794;2024-01-06T00:30:51;6.70;99.90
21722;DHT22;11023;48.274;7.794;2024-01-06T00:33:17;6.60;99.90
21722;DHT22;11023;48.274;7.794;2024-01-06T00:35:43;6.60;99.90
21722;DHT22;11023;48.274;7.794;2024-01-06T00:38:09;6.60;99.90
21722;DHT22;11023;48.274;7.794;2024-01-06T00:40:35;6.50;99.90
21722;DHT22;11023;48.274;7.794;2024-01-06T00:43:02;6.50;99.90
21722;DHT22;11023;48.274;7.794;2024-01-06T00:45:28;6.40;99.90
21722;DHT22;11023;48.274;7.794;2024-01-06T00:47:54;6.40;99.90
21722;DHT22;11023;48.274;7.794;2024-01-06T00:50:20;6.30;99.90
21722;DHT22;11023;48.274;7.794;2024-01-06T00:52:46;6.20;99.90
21722;DHT22;11023;48.274;7.794;2024-01-06T00:55:12;6.20;99.90
21722;DHT22;11023;48.274;7.794;2024-01-06T00:57:38;6.10;99.90
21722;DHT22;11023;48.274;7.794;2024-01-06T01:00:05;6.00;99.90
21722;DHT22;11023;48.274;7.794;2024-01-06T01:02:31;6.00;99.90
21722;DHT22;11023;48.274;7.794;2024-01-06T01:04:57;6.00;99.90
21722;DHT22;11023;48.274;7.794;2024-01-06T01:07:24;5.90;99.90
21722;DHT22;11023;48.274;7.794;2024-01-06T01:09:51;5.90;99.90
21722;DHT22;11023;48.274;7.794;2024-01-06T01:12:16;5.90;99.90
21722;DHT22;11023;48.274;7.794;2024-01-06T01:14:42;6.00;99.90
21722;DHT22;11023;48.274;7.794;2024-01-06T01:17:08;6.00;99.90
21722;DHT22;11023;48.274;7.794;2024-01-06T01:19:34;6.00;99.90
21722;DHT22;11023;48.274;7.794;2024-01-06T01:22:00;5.90;99.90
21722;DHT22;11023;48.274;7.794;2024-01-06T01:24:26;5.90;99.90
21722;DHT22;11023;48.274;7.794;2024-01-06T01:26:57;5.90;99.90
21722;DHT22;11023;48.274;7.794;2024-01-06T01:29:22;5.90;99.90
21722;DHT22;11023;48.274;7.794;2024-01-06T01:31:48;5.90;99.90
21722;DHT22;11023;48.274;7.794;2024-01-06T01:34:14;5.90;99.90
21722;DHT22;11023;48.274;7.794;2024-01-06T01:36:43;5.90;99.90
21722;DHT22;11023;48.274;7.794;2024-01-06T01:39:09;5.90;99.90
21722;DHT22;11023;48.274;7.794;2024-01-06T01:41:35;5.80;99.90
21722;DHT22;11023;48.274;7.794;2024-01-06T01:44:01;5.80;99.90
21722;DHT22;11023;48.274;7.794;2024-01-06T01:46:30;5.80;99.90
21722;DHT22;11023;48.274;7.794;2024-01-06T01:48:57;5.80;99.90
21722;DHT22;11023;48.274;7.794;2024-01-06T01:51:27;5.70;99.90
21722;DHT22;11023;48.274;7.794;2024-01-06T01:53:53;5.70;99.90
21722;DHT22;11023;48.274;7.794;2024-01-06T01:56:20;5.70;99.90
21722;DHT22;11023;48.274;7.794;2024-01-06T01:58:47;5.60;99.90
21722;DHT22;11023;48.274;7.794;2024-01-06T02:01:14;5.60;99.90
21722;DHT22;11023;48.274;7.794;2024-01-06T02:03:43;5.60;99.90
21722;DHT22;11023;48.274;7.794;2024-01-06T02:06:10;5.60;99.90
21722;DHT22;11023;48.274;7.794;2024-01-06T02:08:38;5.60;99.90
21722;DHT22;11023;48.274;7.794;2024-01-06T02:11:04;5.60;99.90
21722;DHT22;11023;48.274;7.794;2024-01-06T02:13:35;5.60;99.90
21722;DHT22;11023;48.274;7.794;2024-01-06T02:16:02;5.60;99.90
21722;DHT22;11023;48.274;7.794;2024-01-06T02:18:29;5.60;99.90
21722;DHT22;11023;48.274;7.794;2024-01-06T02:20:58;5.50;99.90
21722;DHT22;11023;48.274;7.794;2024-01-06T02:23:29;5.50;99.90
21722;DHT22;11023;48.274;7.794;2024-01-06T02:25:55;5.50;99.90
21722;DHT22;11023;48.274;7.794;2024-01-06T02:28:21;5.50;99.90
21722;DHT22;11023;48.274;7.794;2024-01-06T02:30:47;5.40;99.90
21722;DHT22;11023;48.274;7.794;2024-01-06T02:33:16;5.40;99.90
21722;DHT22;11023;48.274;7.794;2024-01-06T02:35:42;5.40;99.90
21722;DHT22;11023;48.274;7.794;2024-01-06T02:38:09;5.40;99.90
21722;DHT22;11023;48.274;7.794;2024-01-06T02:40:35;5.40;99.90
21722;DHT22;11023;48.274;7.794;2024-01-06T02:43:01;5.40;99.90
21722;DHT22;11023;48.274;7.794;2024-01-06T02:45:27;5.40;99.90
21722;DHT22;11023;48.274;7.794;2024-01-06T02:47:56;5.50;99.90
21722;DHT22;11023;48.274;7.794;2024-01-06T02:50:22;5.40;99.90
21722;DHT22;11023;48.274;7.794;2024-01-06T02:52:48;5.50;99.90
21722;DHT22;11023;48.274;7.794;2024-01-06T02:55:14;5.50;99.90
21722;DHT22;11023;48.274;7.794;2024-01-06T02:57:40;5.40;99.90
21722;DHT22;11023;48.274;7.794;2024-01-06T03:00:09;5.50;99.90
21722;DHT22;11023;48.274;7.794;2024-01-06T03:02:35;5.40;99.90
21722;DHT22;11023;48.274;7.794;2024-01-06T03:05:04;5.40;99.90
21722;DHT22;11023;48.274;7.794;2024-01-06T03:07:29;5.30;99.90
21722;DHT22;11023;48.274;7.794;2024-01-06T03:09:55;5.40;99.90
21722;DHT22;11023;48.274;7.794;2024-01-06T03:12:21;5.40;99.90
21722;DHT22;11023;48.274;7.794;2024-01-06T03:14:47;5.40;99.90
21722;DHT22;11023;48.274;7.794;2024-01-06T03:17:13;5.40;99.90
21722;DHT22;11023;48.274;7.794;2024-01-06T03:19:39;5.30;99.90
21722;DHT22;11023;48.274;7.794;2024-01-06T03:22:05;5.30;99.90
21722;DHT22;11023;48.274;7.794;2024-01-06T03:24:31;5.30;99.90
21722;DHT22;11023;48.274;7.794;2024-01-06T03:26:57;5.30;99.90
21722;DHT22;11023;48.274;7.794;2024-01-06T03:29:23;5.20;99.90
21722;DHT22;11023;48.274;7.794;2024-01-06T03:31:49;5.30;99.90
21722;DHT22;11023;48.274;7.794;2024-01-06T03:34:15;5.30;99.90
21722;DHT22;11023;48.274;7.794;2024-01-06T03:36:42;5.30;99.90
21722;DHT22;11023;48.274;7.794;2024-01-06T03:39:08;5.30;99.90
21722;DHT22;11023;48.274;7.794;2024-01-06T03:41:35;5.30;99.90
21722;DHT22;11023;48.274;7.794;2024-01-06T03:44:01;5.30;99.90
21722;DHT22;11023;48.274;7.794;2024-01-06T03:46:27;5.20;99.90
21722;DHT22;11023;48.274;7.794;2024-01-06T03:48:54;5.20;99.90
21722;DHT22;11023;48.274;7.794;2024-01-06T03:51:19;5.20;99.90
21722;DHT22;11023;48.274;7.794;2024-01-06T03:53:45;5.20;99.90
21722;DHT22;11023;48.274;7.794;2024-01-06T03:56:13;5.20;99.90
21722;DHT22;11023;48.274;7.794;2024-01-06T03:58:39;5.20;99.90
21722;DHT22;11023;48.274;7.794;2024-01-06T04:01:05;5.20;99.90
21722;DHT22;11023;48.274;7.794;2024-01-06T04:03:30;5.20;99.90
21722;DHT22;11023;48.274;7.794;2024-01-06T04:05:59;5.20;99.90
21722;DHT22;11023;48.274;7.794;2024-01-06T04:08:24;5.10;99.90
21722;DHT22;11023;48.274;7.794;2024-01-06T04:10:50;5.20;99.90
21722;DHT22;11023;48.274;7.794;2024-01-06T04:13:17;5.10;99.90
21722;DHT22;11023;48.274;7.794;2024-01-06T04:15:43;5.10;99.90
21722;DHT22;11023;48.274;7.794;2024-01-06T04:18:08;5.10;99.90
21722;DHT22;11023;48.274;7.794;2024-01-06T04:20:35;5.10;99.90
21722;DHT22;11023;48.274;7.794;2024-01-06T04:23:02;5.00;99.90
21722;DHT22;11023;48.274;7.794;2024-01-06T04:25:28;5.00;99.90
21722;DHT22;11023;48.274;7.794;2024-01-06T04:27:54;5.00;99.90
21722;DHT22;11023;48.274;7.794;2024-01-06T04:30:20;5.00;99.90
21722;DHT22;11023;48.274;7.794;2024-01-06T04:32:46;5.00;99.90
21722;DHT22;11023;48.274;7.794;2024-01-06T04:35:14;5.00;99.90
21722;DHT22;11023;48.274;7.794;2024-01-06T04:37:39;5.00;99.90
21722;DHT22;11023;48.274;7.794;2024-01-06T04:40:05;5.00;99.90
21722;DHT22;11023;48.274;7.794;2024-01-06T04:42:31;5.00;99.90
21722;DHT22;11023;48.274;7.794;2024-01-06T04:44:57;5.00;99.90
21722;DHT22;11023;48.274;7.794;2024-01-06T04:47:23;5.10;99.90
21722;DHT22;11023;48.274;7.794;2024-01-06T04:49:48;5.10;99.90
21722;DHT22;11023;48.274;7.794;2024-01-06T04:52:16;5.10;99.90
21722;DHT22;11023;48.274;7.794;2024-01-06T04:54:42;5.10;99.90
21722;DHT22;11023;48.274;7.794;2024-01-06T04:57:08;5.10;99.90
21722;DHT22;11023;48.274;7.794;2024-01-06T04:59:33;5.10;99.90
21722;DHT22;11023;48.274;7.794;2024-01-06T05:01:59;5.10;99.90
21722;DHT22;11023;48.274;7.794;2024-01-06T05:04:26;5.00;99.90
21722;DHT22;11023;48.274;7.794;2024-01-06T05:06:52;5.00;99.90
21722;DHT22;11023;48.274;7.794;2024-01-06T05:09:17;5.00;99.90
21722;DHT22;11023;48.274;7.794;2024-01-06T05:11:44;5.00;99.90
21722;DHT22;11023;48.274;7.794;2024-01-06T05:14:10;5.00;99.90
21722;DHT22;11023;48.274;7.794;2024-01-06T05:16:36;5.00;99.90
21722;DHT22;11023;48.274;7.794;2024-01-06T05:19:01;4.90;99.90
21722;DHT22;11023;48.274;7.794;2024-01-06T05:21:29;4.90;99.90
21722;DHT22;11023;48.274;7.794;2024-01-06T05:23:55;4.90;99.90
21722;DHT22;11023;48.274;7.794;2024-01-06T05:26:20;4.90;99.90
21722;DHT22;11023;48.274;7.794;2024-01-06T05:28:46;4.90;99.90
21722;DHT22;11023;48.274;7.794;2024-01-06T05:31:13;4.90;99.90
21722;DHT22;11023;48.274;7.794;2024-01-06T05:33:38;4.90;99.90
21722;DHT22;11023;48.274;7.794;2024-01-06T05:36:04;4.90;99.90
21722;DHT22;11023;48.274;7.794;2024-01-06T05:38:30;4.90;99.90
21722;DHT22;11023;48.274;7.794;2024-01-06T05:40:57;4.90;99.90
21722;DHT22;11023;48.274;7.794;2024-01-06T05:43:23;4.90;99.90
21722;DHT22;11023;48.274;7.794;2024-01-06T05:45:52;4.90;99.90
21722;DHT22;11023;48.274;7.794;2024-01-06T05:48:18;4.80;99.90
21722;DHT22;11023;48.274;7.794;2024-01-06T05:50:43;4.80;99.90
21722;DHT22;11023;48.274;7.794;2024-01-06T05:53:09;4.80;99.90
21722;DHT22;11023;48.274;7.794;2024-01-06T05:55:36;4.80;99.90
21722;DHT22;11023;48.274;7.794;2024-01-06T05:58:02;4.70;99.90
21722;DHT22;11023;48.274;7.794;2024-01-06T06:00:28;4.80;99.90
21722;DHT22;11023;48.274;7.794;2024-01-06T06:02:57;4.80;99.90
21722;DHT22;11023;48.274;7.794;2024-01-06T06:05:22;4.80;99.90
21722;DHT22;11023;48.274;7.794;2024-01-06T06:07:48;4.80;99.90
21722;DHT22;11023;48.274;7.794;2024-01-06T06:10:14;4.80;99.90
21722;DHT22;11023;48.274;7.794;2024-01-06T06:12:41;4.90;99.90
21722;DHT22;11023;48.274;7.794;2024-01-06T06:15:07;4.90;99.90
21722;DHT22;11023;48.274;7.794;2024-01-06T06:17:33;4.90;99.90
21722;DHT22;11023;48.274;7.794;2024-01-06T06:20:00;5.00;99.90
21722;DHT22;11023;48.274;7.794;2024-01-06T06:22:27;5.00;99.90
21722;DHT22;11023;48.274;7.794;2024-01-06T06:24:57;5.00;99.90
21722;DHT22;11023;48.274;7.794;2024-01-06T06:27:23;5.00;99.90
21722;DHT22;11023;48.274;7.794;2024-01-06T06:29:49;4.90;99.90
21722;DHT22;11023;48.274;7.794;2024-01-06T06:32:15;5.00;99.90
21722;DHT22;11023;48.274;7.794;2024-01-06T06:34:42;5.00;99.90
21722;DHT22;11023;48.274;7.794;2024-01-06T06:37:08;5.00;99.90
21722;DHT22;11023;48.274;7.794;2024-01-06T06:39:34;5.00;99.90
21722;DHT22;11023;48.274;7.794;2024-01-06T06:42:01;5.00;99.90
21722;DHT22;11023;48.274;7.794;2024-01-06T06:44:27;5.00;99.90
21722;DHT22;11023;48.274;7.794;2024-01-06T06:46:53;5.00;99.90
21722;DHT22;11023;48.274;7.794;2024-01-06T06:49:18;5.00;99.90
21722;DHT22;11023;48.274;7.794;2024-01-06T06:51:44;5.00;99.90
21722;DHT22;11023;48.274;7.794;2024-01-06T06:54:14;5.00;99.90
21722;DHT22;11023;48.274;7.794;2024-01-06T06:56:42;5.00;99.90
21722;DHT22;11023;48.274;7.794;2024-01-06T06:59:07;5.10;99.90
21722;DHT22;11023;48.274;7.794;2024-01-06T07:01:33;5.10;99.90
21722;DHT22;11023;48.274;7.794;2024-01-06T07:03:59;5.10;99.90
21722;DHT22;11023;48.274;7.794;2024-01-06T07:06:25;5.10;99.90
21722;DHT22;11023;48.274;7.794;2024-01-06T07:08:52;5.10;99.90
21722;DHT22;11023;48.274;7.794;2024-01-06T07:11:18;5.10;99.90
21722;DHT22;11023;48.274;7.794;2024-01-06T07:13:44;5.10;99.90
21722;DHT22;11023;48.274;7.794;2024-01-06T07:16:10;5.20;99.90
21722;DHT22;11023;48.274;7.794;2024-01-06T07:18:37;5.20;99.90
21722;DHT22;11023;48.274;7.794;2024-01-06T07:21:06;5.20;99.90
21722;DHT22;11023;48.274;7.794;2024-01-06T07:23:33;5.20;99.90
21722;DHT22;11023;48.274;7.794;2024-01-06T07:26:00;5.20;99.90
21722;DHT22;11023;48.274;7.794;2024-01-06T07:28:26;5.20;99.90
21722;DHT22;11023;48.274;7.794;2024-01-06T07:30:52;5.30;99.90
21722;DHT22;11023;48.274;7.794;2024-01-06T07:33:18;5.30;99.90
21722;DHT22;11023;48.274;7.794;2024-01-06T07:35:43;5.30;99.90
21722;DHT22;11023;48.274;7.794;2024-01-06T07:38:10;5.30;99.90
21722;DHT22;11023;48.274;7.794;2024-01-06T07:40:37;5.30;99.90
21722;DHT22;11023;48.274;7.794;2024-01-06T07:43:03;5.30;99.90
21722;DHT22;11023;48.274;7.794;2024-01-06T07:45:30;5.30;99.90
21722;DHT22;11023;48.274;7.794;2024-01-06T07:47:57;5.30;99.90
21722;DHT22;11023;48.274;7.794;2024-01-06T07:50:23;5.40;99.90
21722;DHT22;11023;48.274;7.794;2024-01-06T07:52:49;5.40;99.90
21722;DHT22;11023;48.274;7.794;2024-01-06T07:55:17;5.40;99.90
21722;DHT22;11023;48.274;7.794;2024-01-06T07:57:44;5.40;99.90
21722;DHT22;11023;48.274;7.794;2024-01-06T08:00:12;5.40;99.90
21722;DHT22;11023;48.274;7.794;2024-01-06T08:02:42;5.50;99.90
21722;DHT22;11023;48.274;7.794;2024-01-06T08:05:08;5.50;99.90
21722;DHT22;11023;48.274;7.794;2024-01-06T08:07:35;5.50;99.90
21722;DHT22;11023;48.274;7.794;2024-01-06T08:10:01;5.50;99.90
21722;DHT22;11023;48.274;7.794;2024-01-06T08:12:30;5.60;99.90
21722;DHT22;11023;48.274;7.794;2024-01-06T08:14:57;5.60;99.90
21722;DHT22;11023;48.274;7.794;2024-01-06T08:17:23;5.60;99.90
21722;DHT22;11023;48.274;7.794;2024-01-06T08:19:49;5.60;99.90
21722;DHT22;11023;48.274;7.794;2024-01-06T08:22:14;5.70;99.90
21722;DHT22;11023;48.274;7.794;2024-01-06T08:24:41;5.70;99.90
21722;DHT22;11023;48.274;7.794;2024-01-06T08:27:07;5.70;99.90
21722;DHT22;11023;48.274;7.794;2024-01-06T08:29:32;5.70;99.90
21722;DHT22;11023;48.274;7.794;2024-01-06T08:31:58;5.70;99.90
21722;DHT22;11023;48.274;7.794;2024-01-06T08:34:24;5.70;99.90
21722;DHT22;11023;48.274;7.794;2024-01-06T08:36:51;5.80;99.90
21722;DHT22;11023;48.274;7.794;2024-01-06T08:39:17;5.80;99.90
21722;DHT22;11023;48.274;7.794;2024-01-06T08:41:43;5.90;99.90
21722;DHT22;11023;48.274;7.794;2024-01-06T08:44:11;5.90;99.90
21722;DHT22;11023;48.274;7.794;2024-01-06T08:46:37;6.00;99.90
21722;DHT22;11023;48.274;7.794;2024-01-06T08:49:03;6.10;99.90
21722;DHT22;11023;48.274;7.794;2024-01-06T08:51:28;6.10;99.90
21722;DHT22;11023;48.274;7.794;2024-01-06T08:53:57;6.10;99.90
21722;DHT22;11023;48.274;7.794;2024-01-06T08:56:22;6.10;99.90
21722;DHT22;11023;48.274;7.794;2024-01-06T08:58:48;6.10;99.90
21722;DHT22;11023;48.274;7.794;2024-01-06T09:01:14;6.20;99.90
21722;DHT22;11023;48.274;7.794;2024-01-06T09:03:40;6.20;99.90
21722;DHT22;11023;48.274;7.794;2024-01-06T09:06:07;6.20;99.90
21722;DHT22;11023;48.274;7.794;2024-01-06T09:08:33;6.30;99.90
21722;DHT22;11023;48.274;7.794;2024-01-06T09:10:59;6.30;99.90
21722;DHT22;11023;48.274;7.794;2024-01-06T09:13:25;6.40;99.90
21722;DHT22;11023;48.274;7.794;2024-01-06T09:15:51;6.50;99.90
21722;DHT22;11023;48.274;7.794;2024-01-06T09:18:17;6.50;99.90
21722;DHT22;11023;48.274;7.794;2024-01-06T09:20:43;6.60;99.90
21722;DHT22;11023;48.274;7.794;2024-01-06T09:23:09;6.60;99.90
21722;DHT22;11023;48.274;7.794;2024-01-06T09:25:36;6.70;99.90
21722;DHT22;11023;48.274;7.794;2024-01-06T09:28:01;6.70;99.90
21722;DHT22;11023;48.274;7.794;2024-01-06T09:30:30;6.70;99.90
21722;DHT22;11023;48.274;7.794;2024-01-06T09:32:56;6.70;99.90
21722;DHT22;11023;48.274;7.794;2024-01-06T09:35:21;6.80;99.90
21722;DHT22;11023;48.274;7.794;2024-01-06T09:37:48;6.90;99.90
21722;DHT22;11023;48.274;7.794;2024-01-06T09:40:21;6.90;99.90
21722;DHT22;11023;48.274;7.794;2024-01-06T09:42:48;6.90;99.90
21722;DHT22;11023;48.274;7.794;2024-01-06T09:45:14;7.00;99.90
21722;DHT22;11023;48.274;7.794;2024-01-06T09:47:41;7.00;99.90
21722;DHT22;11023;48.274;7.794;2024-01-06T09:50:09;7.10;99.90
21722;DHT22;11023;48.274;7.794;2024-01-06T09:52:39;7.10;99.90
21722;DHT22;11023;48.274;7.794;2024-01-06T09:55:11;7.10;99.90
21722;DHT22;11023;48.274;7.794;2024-01-06T09:57:37;7.20;99.90
21722;DHT22;11023;48.274;7.794;2024-01-06T10:00:04;7.30;99.90
21722;DHT22;11023;48.274;7.794;2024-01-06T10:02:30;7.30;99.90
21722;DHT22;11023;48.274;7.794;2024-01-06T10:04:57;7.30;99.90
21722;DHT22;11023;48.274;7.794;2024-01-06T10:07:30;7.40;99.90
21722;DHT22;11023;48.274;7.794;2024-01-06T10:09:56;7.50;99.90
21722;DHT22;11023;48.274;7.794;2024-01-06T10:12:25;7.50;99.90
21722;DHT22;11023;48.274;7.794;2024-01-06T10:14:53;7.50;99.90
21722;DHT22;11023;48.274;7.794;2024-01-06T10:17:19;7.50;99.90
21722;DHT22;11023;48.274;7.794;2024-01-06T10:19:47;7.50;99.90
21722;DHT22;11023;48.274;7.794;2024-01-06T10:22:14;7.60;99.90
21722;DHT22;11023;48.274;7.794;2024-01-06T10:24:40;7.60;99.90
21722;DHT22;11023;48.274;7.794;2024-01-06T10:27:06;7.60;99.90
21722;DHT22;11023;48.274;7.794;2024-01-06T10:29:34;7.60;99.90
21722;DHT22;11023;48.274;7.794;2024-01-06T10:32:00;7.70;99.90
21722;DHT22;11023;48.274;7.794;2024-01-06T10:34:26;7.70;99.90
21722;DHT22;11023;48.274;7.794;2024-01-06T10:36:53;7.80;99.90
21722;DHT22;11023;48.274;7.794;2024-01-06T10:39:19;7.80;99.90
21722;DHT22;11023;48.274;7.794;2024-01-06T10:41:48;7.80;99.90
21722;DHT22;11023;48.274;7.794;2024-01-06T10:44:15;7.80;99.90
21722;DHT22;11023;48.274;7.794;2024-01-06T10:46:41;7.80;99.90
21722;DHT22;11023;48.274;7.794;2024-01-06T10:49:09;7.90;99.90
21722;DHT22;11023;48.274;7.794;2024-01-06T10:51:38;7.90;99.90
21722;DHT22;11023;48.274;7.794;2024-01-06T10:54:05;7.90;99.90
21722;DHT22;11023;48.274;7.794;2024-01-06T10:56:36;7.90;99.90
21722;DHT22;11023;48.274;7.794;2024-01-06T10:59:03;8.00;99.90
21722;DHT22;11023;48.274;7.794;2024-01-06T11:01:29;8.10;99.90
21722;DHT22;11023;48.274;7.794;2024-01-06T11:03:55;8.10;99.90
21722;DHT22;11023;48.274;7.794;2024-01-06T11:06:22;8.20;99.90
21722;DHT22;11023;48.274;7.794;2024-01-06T11:09:16;8.30;99.90
21722;DHT22;11023;48.274;7.794;2024-01-06T11:11:45;8.40;99.90
21722;DHT22;11023;48.274;7.794;2024-01-06T11:14:24;8.40;99.90
21722;DHT22;11023;48.274;7.794;2024-01-06T11:16:56;8.40;99.90
21722;DHT22;11023;48.274;7.794;2024-01-06T11:22:28;8.40;99.90
21722;DHT22;11023;48.274;7.794;2024-01-06T11:25:24;8.40;99.90
21722;DHT22;11023;48.274;7.794;2024-01-06T11:27:50;8.40;99.90
21722;DHT22;11023;48.274;7.794;2024-01-06T11:30:25;8.40;99.90
21722;DHT22;11023;48.274;7.794;2024-01-06T11:32:56;8.40;99.90
21722;DHT22;11023;48.274;7.794;2024-01-06T11:35:27;8.40;99.90
21722;DHT22;11023;48.274;7.794;2024-01-06T11:37:55;8.40;99.90
21722;DHT22;11023;48.274;7.794;2024-01-06T11:45:24;8.50;99.90
21722;DHT22;11023;48.274;7.794;2024-01-06T11:47:54;8.50;99.90
21722;DHT22;11023;48.274;7.794;2024-01-06T11:50:23;8.50;99.90
21722;DHT22;11023;48.274;7.794;2024-01-06T11:52:49;8.50;99.90
21722;DHT22;11023;48.274;7.794;2024-01-06T11:55:18;8.50;99.90
21722;DHT22;11023;48.274;7.794;2024-01-06T11:57:44;8.50;99.90
21722;DHT22;11023;48.274;7.794;2024-01-06T12:00:11;8.50;99.90
21722;DHT22;11023;48.274;7.794;2024-01-06T12:02:39;8.40;99.90
21722;DHT22;11023;48.274;7.794;2024-01-06T12:05:05;8.50;99.90
21722;DHT22;11023;48.274;7.794;2024-01-06T12:07:31;8.40;99.90
21722;DHT22;11023;48.274;7.794;2024-01-06T12:10:03;8.40;99.90
21722;DHT22;11023;48.274;7.794;2024-01-06T12:12:29;8.40;99.90
21722;DHT22;11023;48.274;7.794;2024-01-06T12:14:54;8.40;99.90
21722;DHT22;11023;48.274;7.794;2024-01-06T12:17:21;8.40;99.90
21722;DHT22;11023;48.274;7.794;2024-01-06T12:19:47;8.30;99.90
21722;DHT22;11023;48.274;7.794;2024-01-06T12:22:14;8.30;99.90
21722;DHT22;11023;48.274;7.794;2024-01-06T12:24:41;8.30;99.90
21722;DHT22;11023;48.274;7.794;2024-01-06T12:27:08;8.30;99.90
21722;DHT22;11023;48.274;7.794;2024-01-06T12:29:38;8.30;99.90
21722;DHT22;11023;48.274;7.794;2024-01-06T12:32:06;8.30;99.90
21722;DHT22;11023;48.274;7.794;2024-01-06T12:34:31;8.30;99.90
21722;DHT22;11023;48.274;7.794;2024-01-06T12:37:00;8.30;99.90
21722;DHT22;11023;48.274;7.794;2024-01-06T12:39:28;8.20;99.90
21722;DHT22;11023;48.274;7.794;2024-01-06T12:41:57;8.10;99.90
21722;DHT22;11023;48.274;7.794;2024-01-06T12:44:25;8.00;99.90
21722;DHT22;11023;48.274;7.794;2024-01-06T12:46:50;8.00;99.90
21722;DHT22;11023;48.274;7.794;2024-01-06T12:49:16;8.00;99.90
21722;DHT22;11023;48.274;7.794;2024-01-06T12:51:42;8.00;99.90
21722;DHT22;11023;48.274;7.794;2024-01-06T12:54:08;8.10;99.90
21722;DHT22;11023;48.274;7.794;2024-01-06T12:56:33;8.10;99.90
21722;DHT22;11023;48.274;7.794;2024-01-06T12:59:01;8.10;99.90
21722;DHT22;11023;48.274;7.794;2024-01-06T13:01:27;8.20;99.90
21722;DHT22;11023;48.274;7.794;2024-01-06T13:03:53;8.20;99.90
21722;DHT22;11023;48.274;7.794;2024-01-06T13:06:20;8.30;99.90
21722;DHT22;11023;48.274;7.794;2024-01-06T13:08:45;8.30;99.90
21722;DHT22;11023;48.274;7.794;2024-01-06T13:11:11;8.40;99.90
21722;DHT22;11023;48.274;7.794;2024-01-06T13:13:37;8.40;99.90
21722;DHT22;11023;48.274;7.794;2024-01-06T13:16:02;8.40;99.90
21722;DHT22;11023;48.274;7.794;2024-01-06T13:18:30;8.50;99.90
21722;DHT22;11023;48.274;7.794;2024-01-06T13:20:56;8.50;99.90
21722;DHT22;11023;48.274;7.794;2024-01-06T13:23:22;8.50;99.90
21722;DHT22;11023;48.274;7.794;2024-01-06T13:25:47;8.50;99.90
21722;DHT22;11023;48.274;7.794;2024-01-06T13:28:13;8.50;99.90
21722;DHT22;11023;48.274;7.794;2024-01-06T13:30:39;8.50;99.90
21722;DHT22;11023;48.274;7.794;2024-01-06T13:33:08;8.50;99.90
21722;DHT22;11023;48.274;7.794;2024-01-06T13:35:35;8.50;99.90
21722;DHT22;11023;48.274;7.794;2024-01-06T13:38:02;8.40;99.90
21722;DHT22;11023;48.274;7.794;2024-01-06T13:40:30;8.40;99.90
21722;DHT22;11023;48.274;7.794;2024-01-06T13:42:55;8.40;99.90
21722;DHT22;11023;48.274;7.794;2024-01-06T13:45:21;8.40;99.90
21722;DHT22;11023;48.274;7.794;2024-01-06T13:47:47;8.40;99.90
21722;DHT22;11023;48.274;7.794;2024-01-06T13:50:15;8.20;99.90
21722;DHT22;11023;48.274;7.794;2024-01-06T13:52:42;8.20;99.90
21722;DHT22;11023;48.274;7.794;2024-01-06T13:55:08;8.10;99.90
21722;DHT22;11023;48.274;7.794;2024-01-06T13:57:34;8.10;99.90
21722;DHT22;11023;48.274;7.794;2024-01-06T14:00:00;8.00;99.90
21722;DHT22;11023;48.274;7.794;2024-01-06T14:02:26;7.90;99.90
21722;DHT22;11023;48.274;7.794;2024-01-06T14:04:52;7.80;99.90
21722;DHT22;11023;48.274;7.794;2024-01-06T14:07:18;7.70;99.90
21722;DHT22;11023;48.274;7.794;2024-01-06T14:09:47;7.70;99.90
21722;DHT22;11023;48.274;7.794;2024-01-06T14:12:13;7.60;99.90
21722;DHT22;11023;48.274;7.794;2024-01-06T14:14:39;7.50;99.90
21722;DHT22;11023;48.274;7.794;2024-01-06T14:17:07;7.40;99.90
21722;DHT22;11023;48.274;7.794;2024-01-06T14:19:33;7.40;99.90
21722;DHT22;11023;48.274;7.794;2024-01-06T14:21:58;7.40;99.90
21722;DHT22;11023;48.274;7.794;2024-01-06T14:24:24;7.30;99.90
21722;DHT22;11023;48.274;7.794;2024-01-06T14:26:50;7.30;99.90
21722;DHT22;11023;48.274;7.794;2024-01-06T14:29:17;7.20;99.90
21722;DHT22;11023;48.274;7.794;2024-01-06T14:31:43;7.20;99.90
21722;DHT22;11023;48.274;7.794;2024-01-06T14:34:09;7.00;99.90
21722;DHT22;11023;48.274;7.794;2024-01-06T14:36:35;7.00;99.90
21722;DHT22;11023;48.274;7.794;2024-01-06T14:39:00;6.90;99.90
21722;DHT22;11023;48.274;7.794;2024-01-06T14:41:27;6.90;99.90
21722;DHT22;11023;48.274;7.794;2024-01-06T14:43:53;6.90;99.90
21722;DHT22;11023;48.274;7.794;2024-01-06T14:46:18;6.90;99.90
21722;DHT22;11023;48.274;7.794;2024-01-06T14:48:44;6.90;99.90
21722;DHT22;11023;48.274;7.794;2024-01-06T14:51:10;6.90;99.90
21722;DHT22;11023;48.274;7.794;2024-01-06T14:53:36;6.90;99.90
21722;DHT22;11023;48.274;7.794;2024-01-06T14:56:01;6.80;99.90
21722;DHT22;11023;48.274;7.794;2024-01-06T14:58:29;6.90;99.90
21722;DHT22;11023;48.274;7.794;2024-01-06T15:00:55;6.80;99.90
21722;DHT22;11023;48.274;7.794;2024-01-06T15:03:21;6.80;99.90
21722;DHT22;11023;48.274;7.794;2024-01-06T15:05:49;6.80;99.90
21722;DHT22;11023;48.274;7.794;2024-01-06T15:08:15;6.80;99.90
21722;DHT22;11023;48.274;7.794;2024-01-06T15:10:41;6.80;99.90
21722;DHT22;11023;48.274;7.794;2024-01-06T15:13:06;6.80;99.90
21722;DHT22;11023;48.274;7.794;2024-01-06T15:15:32;6.90;99.90
21722;DHT22;11023;48.274;7.794;2024-01-06T15:17:58;6.90;99.90
21722;DHT22;11023;48.274;7.794;2024-01-06T15:20:23;6.90;99.90
21722;DHT22;11023;48.274;7.794;2024-01-06T15:22:49;6.90;99.90
21722;DHT22;11023;48.274;7.794;2024-01-06T15:25:15;6.90;99.90
21722;DHT22;11023;48.274;7.794;2024-01-06T15:27:43;6.90;99.90
21722;DHT22;11023;48.274;7.794;2024-01-06T15:30:08;6.90;99.90
21722;DHT22;11023;48.274;7.794;2024-01-06T15:32:38;6.90;99.90
21722;DHT22;11023;48.274;7.794;2024-01-06T15:35:04;6.90;99.90
21722;DHT22;11023;48.274;7.794;2024-01-06T15:37:31;6.80;99.90
21722;DHT22;11023;48.274;7.794;2024-01-06T15:39:57;6.80;99.90
21722;DHT22;11023;48.274;7.794;2024-01-06T15:42:23;6.80;99.90
21722;DHT22;11023;48.274;7.794;2024-01-06T15:44:48;6.80;99.90
21722;DHT22;11023;48.274;7.794;2024-01-06T15:47:14;6.80;99.90
21722;DHT22;11023;48.274;7.794;2024-01-06T15:49:40;6.70;99.90